Crouch, Idaho
Current Conditions -  °F | °C
As of 9:53 PM on Friday 21 Nov 2014 (Local Time) from KBOI Reporting Station
Haze Haze  
Wind Chill: 30°   Ceiling: 4400
Heat Index: 36°   Visibility: 6mi
Dew Point: 34°   Wind: 7mph
Humidity: 93%   Direction: 110°ESE
Pressure: 29.85"   Gusts: NA
Location:  44.07°N, 115.488°W
Report Text: KBOI 220453Z 11006KT 6SM BR SCT038 BKN044 OVC055 02/01 A2985 RMK AO2 RAE47 SLP123 P0005 T00220011
Loading
Personal Weather Stations






























Interactive Weather Map New forecast layout! Learn more

10-Day Weather Forecast

Advertisements
Track Severe Weather on mobile